• Join FlightAware (Why Join?)
  • Login
  • US Flag 
01:26AM EST


 

Airport Tracker/Info


-or-


 

Live Flight TrackerFlight Track Log ✈ N5349M ✈ 02-Jul-2014 ✈ KILM - KGSO

Flight Track Log - Related Links

Times and Time Zones

All times are in EDT time to prevent confusion due to time zone crossing. See the N5349M flight status page for this flight to view local times or setup timezone preferences in your user account.

Time Position Orientation Groundspeed Altitude Reporting Facility
EDT Latitude Longitude Course Direction KTS MPH feet Rate Location/Type
09:07PM 34.4558 -78.0913 327° Northwest  Level FlightAware Approximate
09:08PM 34.4870 -78.1236 316° Northwest  Level FlightAware Approximate
09:09PM 34.5168 -78.1582 316° Northwest  Level FlightAware Approximate
09:10PM 34.5465 -78.1928 316° Northwest  Level FlightAware Approximate
09:11PM 34.5763 -78.2274 316° Northwest  Level FlightAware Approximate
09:12PM 34.6060 -78.2621 316° Northwest  Level FlightAware Approximate
09:13PM 34.6357 -78.2968 316° Northwest  Level FlightAware Approximate
09:14PM 34.6654 -78.3315 316° Northwest  Level FlightAware Approximate
09:14PM 34.5672 -78.3789 318° Northwest 170 196 6,000  Level Washington Center
09:18PM 34.7117 -78.5228 321° Northwest 167 192 6,000  Level Washington Center
09:22PM 34.8542 -78.6672 318° Northwest 166 191 6,000  Level Washington Center
09:26PM 34.9944 -78.8069 323° Northwest 163 188 6,000  Level Washington Center
09:30PM 35.1344 -78.9494 324° Northwest 162 186 6,000  Level Washington Center
09:33PM 35.2581 -79.0794 326° Northwest 161 185 6,000  Level Washington Center
09:34PM 35.2967 -79.1192 320° Northwest 157 181 6,000  Level Washington Center
09:35PM 35.2855 -79.0699 324° Northwest  Level FlightAware Approximate
09:35PM 35.3311 -79.1539 321° Northwest 161 185 6,000  Level Washington Center
09:36PM 35.3656 -79.1883 321° Northwest 159 183 6,000  Level Washington Center
09:38PM 35.4019 -79.2202 324° Northwest  Level FlightAware Approximate
09:39PM 35.4292 -79.2047 326° Northwest  Level FlightAware Approximate
09:45PM 35.6236 -79.4469 318° Northwest  Level Estimated
09:46PM 35.6568 -79.4768 324° Northwest  Level FlightAware Approximate
09:47PM 35.6900 -79.5068 324° Northwest  Level FlightAware Approximate
09:48PM 35.7233 -79.5368 324° Northwest  Level FlightAware Approximate
09:49PM 35.7565 -79.5668 324° Northwest  Level FlightAware Approximate
09:50PM 35.7875 -79.6003 313° West  Level Estimated
09:51PM 35.8191 -79.6328 320° Northwest  Level FlightAware Approximate
09:52PM 35.8500 -79.6665 315° West  Level Estimated
09:53PM 35.8802 -79.7011 317° Northwest  Level FlightAware Approximate
09:54PM 35.9103 -79.7358 317° Northwest  Level FlightAware Approximate
09:55PM 35.9404 -79.7706 317° Northwest  Level FlightAware Approximate
09:56PM 35.9705 -79.8053 317° Northwest  Level FlightAware Approximate
09:57PM 36.0021 -79.8381 338° Northwest  Level Estimated
09:58PM 36.0336 -79.8708 338° Northwest  Level Estimated
09:59PM 36.0652 -79.9036 338° Northwest  Level Estimated
10:00PM 36.1000 -79.9333 338° Northwest  Level FlightAware Approximate
10:01PM 36.1013 -79.9411 338° Northwest  Level Estimated
10:02PM 36.1000 -79.9333 338° Northwest  Level FlightAware Approximate
10:03PM 36.1013 -79.9411 338° Northwest  Level Estimated
10:04PM 36.1000 -79.9333 338° Northwest  Level FlightAware Approximate
10:05PM 36.1013 -79.9411 338° Northwest  Level Estimated
10:06PM 36.1000 -79.9333 338° Northwest  Level FlightAware Approximate
10:07PM 36.1013 -79.9411 338° Northwest  Level Estimated
10:08PM 36.1000 -79.9333 338° Northwest  Level FlightAware Approximate
10:09PM 36.1013 -79.9411 338° Northwest  Level Estimated